sensor_id;sensor_type;location;lat;lon;timestamp;P1;durP1;ratioP1;P2;durP2;ratioP2
2458;SDS011;1241;50.920;6.936;2023-03-31T00:00:43;27.40;;;20.25;;
2458;SDS011;1241;50.920;6.936;2023-03-31T00:03:10;25.50;;;19.38;;
2458;SDS011;1241;50.920;6.936;2023-03-31T00:05:46;24.67;;;18.33;;
2458;SDS011;1241;50.920;6.936;2023-03-31T00:08:12;13.77;;;10.70;;
2458;SDS011;1241;50.920;6.936;2023-03-31T00:10:42;23.63;;;18.13;;
2458;SDS011;1241;50.920;6.936;2023-03-31T00:13:11;33.13;;;24.35;;
2458;SDS011;1241;50.920;6.936;2023-03-31T00:15:37;26.05;;;18.60;;
2458;SDS011;1241;50.920;6.936;2023-03-31T00:18:03;33.10;;;25.08;;
2458;SDS011;1241;50.920;6.936;2023-03-31T00:20:29;16.23;;;12.40;;
2458;SDS011;1241;50.920;6.936;2023-03-31T00:22:57;15.93;;;13.05;;
2458;SDS011;1241;50.920;6.936;2023-03-31T00:25:25;23.75;;;17.45;;
2458;SDS011;1241;50.920;6.936;2023-03-31T00:27:52;23.38;;;14.85;;
2458;SDS011;1241;50.920;6.936;2023-03-31T00:30:18;16.95;;;12.77;;
2458;SDS011;1241;50.920;6.936;2023-03-31T00:32:43;22.10;;;15.73;;
2458;SDS011;1241;50.920;6.936;2023-03-31T00:35:09;26.52;;;17.58;;
2458;SDS011;1241;50.920;6.936;2023-03-31T00:37:37;16.33;;;12.63;;
2458;SDS011;1241;50.920;6.936;2023-03-31T00:40:03;32.50;;;25.50;;
2458;SDS011;1241;50.920;6.936;2023-03-31T00:42:37;19.45;;;14.38;;
2458;SDS011;1241;50.920;6.936;2023-03-31T00:47:43;27.00;;;20.77;;
2458;SDS011;1241;50.920;6.936;2023-03-31T00:50:15;27.98;;;21.27;;
2458;SDS011;1241;50.920;6.936;2023-03-31T00:52:44;26.70;;;19.45;;
2458;SDS011;1241;50.920;6.936;2023-03-31T00:55:15;19.55;;;14.65;;
2458;SDS011;1241;50.920;6.936;2023-03-31T00:57:45;24.90;;;18.35;;
2458;SDS011;1241;50.920;6.936;2023-03-31T01:00:12;20.05;;;16.42;;
2458;SDS011;1241;50.920;6.936;2023-03-31T01:02:43;17.10;;;12.48;;
2458;SDS011;1241;50.920;6.936;2023-03-31T01:05:24;19.95;;;15.57;;
2458;SDS011;1241;50.920;6.936;2023-03-31T01:07:53;29.70;;;20.20;;
2458;SDS011;1241;50.920;6.936;2023-03-31T01:10:20;19.27;;;13.45;;
2458;SDS011;1241;50.920;6.936;2023-03-31T01:12:48;21.25;;;16.17;;
2458;SDS011;1241;50.920;6.936;2023-03-31T01:15:17;22.45;;;14.77;;
2458;SDS011;1241;50.920;6.936;2023-03-31T01:17:43;16.80;;;11.75;;
2458;SDS011;1241;50.920;6.936;2023-03-31T01:20:13;16.30;;;12.17;;
2458;SDS011;1241;50.920;6.936;2023-03-31T01:31:47;17.63;;;11.32;;
2458;SDS011;1241;50.920;6.936;2023-03-31T01:44:58;14.65;;;10.25;;
2458;SDS011;1241;50.920;6.936;2023-03-31T01:47:55;16.13;;;11.85;;
2458;SDS011;1241;50.920;6.936;2023-03-31T01:50:28;26.50;;;20.35;;
2458;SDS011;1241;50.920;6.936;2023-03-31T01:58:23;20.58;;;16.02;;
2458;SDS011;1241;50.920;6.936;2023-03-31T02:01:05;17.63;;;13.40;;
2458;SDS011;1241;50.920;6.936;2023-03-31T02:04:11;17.40;;;11.65;;
2458;SDS011;1241;50.920;6.936;2023-03-31T02:06:42;18.00;;;13.30;;
2458;SDS011;1241;50.920;6.936;2023-03-31T02:09:12;20.17;;;15.10;;
2458;SDS011;1241;50.920;6.936;2023-03-31T02:11:42;25.42;;;16.52;;
2458;SDS011;1241;50.920;6.936;2023-03-31T02:14:10;20.60;;;15.95;;
2458;SDS011;1241;50.920;6.936;2023-03-31T02:16:39;12.60;;;9.32;;
2458;SDS011;1241;50.920;6.936;2023-03-31T02:19:12;22.00;;;15.85;;
2458;SDS011;1241;50.920;6.936;2023-03-31T02:21:42;23.48;;;16.88;;
2458;SDS011;1241;50.920;6.936;2023-03-31T02:24:13;19.45;;;13.45;;
2458;SDS011;1241;50.920;6.936;2023-03-31T02:26:43;14.85;;;10.60;;
2458;SDS011;1241;50.920;6.936;2023-03-31T02:29:17;27.38;;;19.45;;
2458;SDS011;1241;50.920;6.936;2023-03-31T02:34:51;19.17;;;13.68;;
2458;SDS011;1241;50.920;6.936;2023-03-31T02:37:17;19.42;;;13.60;;
2458;SDS011;1241;50.920;6.936;2023-03-31T02:39:44;21.75;;;16.05;;
2458;SDS011;1241;50.920;6.936;2023-03-31T02:42:12;21.20;;;16.07;;
2458;SDS011;1241;50.920;6.936;2023-03-31T02:44:39;21.73;;;14.68;;
2458;SDS011;1241;50.920;6.936;2023-03-31T02:47:06;18.50;;;14.95;;
2458;SDS011;1241;50.920;6.936;2023-03-31T02:49:36;17.40;;;12.23;;
2458;SDS011;1241;50.920;6.936;2023-03-31T03:00:28;17.38;;;9.77;;
2458;SDS011;1241;50.920;6.936;2023-03-31T03:14:33;17.88;;;7.70;;
2458;SDS011;1241;50.920;6.936;2023-03-31T03:17:14;13.30;;;9.02;;
2458;SDS011;1241;50.920;6.936;2023-03-31T03:19:53;13.40;;;9.38;;
2458;SDS011;1241;50.920;6.936;2023-03-31T03:22:23;9.77;;;8.18;;
2458;SDS011;1241;50.920;6.936;2023-03-31T03:24:49;13.80;;;10.30;;
2458;SDS011;1241;50.920;6.936;2023-03-31T03:27:16;11.65;;;8.13;;
2458;SDS011;1241;50.920;6.936;2023-03-31T03:29:42;11.75;;;8.25;;
2458;SDS011;1241;50.920;6.936;2023-03-31T03:32:09;6.93;;;4.83;;
2458;SDS011;1241;50.920;6.936;2023-03-31T03:34:35;9.02;;;5.63;;
2458;SDS011;1241;50.920;6.936;2023-03-31T03:37:01;10.43;;;5.60;;
2458;SDS011;1241;50.920;6.936;2023-03-31T03:39:27;17.83;;;11.77;;
2458;SDS011;1241;50.920;6.936;2023-03-31T03:41:52;9.93;;;4.60;;
2458;SDS011;1241;50.920;6.936;2023-03-31T03:44:18;11.77;;;7.17;;
2458;SDS011;1241;50.920;6.936;2023-03-31T03:46:44;10.77;;;6.57;;
2458;SDS011;1241;50.920;6.936;2023-03-31T03:49:09;11.73;;;7.20;;
2458;SDS011;1241;50.920;6.936;2023-03-31T03:51:36;10.35;;;5.65;;
2458;SDS011;1241;50.920;6.936;2023-03-31T03:54:03;8.00;;;5.60;;
2458;SDS011;1241;50.920;6.936;2023-03-31T03:56:28;7.65;;;4.90;;
2458;SDS011;1241;50.920;6.936;2023-03-31T03:58:55;14.43;;;8.18;;
2458;SDS011;1241;50.920;6.936;2023-03-31T04:01:21;18.23;;;11.90;;
2458;SDS011;1241;50.920;6.936;2023-03-31T04:03:48;13.40;;;7.75;;
2458;SDS011;1241;50.920;6.936;2023-03-31T04:06:14;9.57;;;5.35;;
2458;SDS011;1241;50.920;6.936;2023-03-31T04:08:40;11.50;;;7.47;;
2458;SDS011;1241;50.920;6.936;2023-03-31T04:11:13;15.10;;;8.97;;
2458;SDS011;1241;50.920;6.936;2023-03-31T04:13:41;11.63;;;7.68;;
2458;SDS011;1241;50.920;6.936;2023-03-31T04:16:07;7.93;;;4.68;;
2458;SDS011;1241;50.920;6.936;2023-03-31T04:18:35;9.02;;;3.72;;
2458;SDS011;1241;50.920;6.936;2023-03-31T04:21:10;9.38;;;5.25;;
2458;SDS011;1241;50.920;6.936;2023-03-31T04:23:41;10.52;;;7.75;;
2458;SDS011;1241;50.920;6.936;2023-03-31T04:26:13;13.02;;;7.20;;
2458;SDS011;1241;50.920;6.936;2023-03-31T04:28:40;9.90;;;5.40;;
2458;SDS011;1241;50.920;6.936;2023-03-31T04:31:14;5.10;;;3.70;;
2458;SDS011;1241;50.920;6.936;2023-03-31T04:33:52;6.00;;;5.13;;
2458;SDS011;1241;50.920;6.936;2023-03-31T04:36:18;7.80;;;4.63;;
2458;SDS011;1241;50.920;6.936;2023-03-31T04:38:46;12.60;;;5.88;;
2458;SDS011;1241;50.920;6.936;2023-03-31T04:41:17;8.10;;;5.47;;
2458;SDS011;1241;50.920;6.936;2023-03-31T04:43:43;7.97;;;4.57;;
2458;SDS011;1241;50.920;6.936;2023-03-31T04:46:10;11.23;;;7.38;;
2458;SDS011;1241;50.920;6.936;2023-03-31T04:48:37;10.85;;;6.20;;
2458;SDS011;1241;50.920;6.936;2023-03-31T04:51:03;5.55;;;4.47;;
2458;SDS011;1241;50.920;6.936;2023-03-31T04:53:29;7.10;;;5.20;;
2458;SDS011;1241;50.920;6.936;2023-03-31T04:55:55;7.77;;;5.17;;
2458;SDS011;1241;50.920;6.936;2023-03-31T04:58:21;8.50;;;6.00;;
2458;SDS011;1241;50.920;6.936;2023-03-31T05:00:46;14.37;;;4.60;;
2458;SDS011;1241;50.920;6.936;2023-03-31T05:03:12;6.90;;;3.87;;
2458;SDS011;1241;50.920;6.936;2023-03-31T05:05:38;6.93;;;4.57;;
2458;SDS011;1241;50.920;6.936;2023-03-31T05:08:04;5.47;;;3.80;;
2458;SDS011;1241;50.920;6.936;2023-03-31T05:10:30;4.50;;;3.25;;
2458;SDS011;1241;50.920;6.936;2023-03-31T05:12:56;11.60;;;5.07;;
2458;SDS011;1241;50.920;6.936;2023-03-31T05:15:22;8.75;;;5.05;;
2458;SDS011;1241;50.920;6.936;2023-03-31T05:17:51;6.90;;;5.05;;
2458;SDS011;1241;50.920;6.936;2023-03-31T05:20:17;8.38;;;5.18;;
2458;SDS011;1241;50.920;6.936;2023-03-31T05:22:44;11.57;;;7.82;;
2458;SDS011;1241;50.920;6.936;2023-03-31T05:25:10;7.72;;;3.78;;
2458;SDS011;1241;50.920;6.936;2023-03-31T05:27:43;6.20;;;3.67;;
2458;SDS011;1241;50.920;6.936;2023-03-31T05:30:11;7.60;;;6.13;;
2458;SDS011;1241;50.920;6.936;2023-03-31T05:32:38;4.20;;;3.28;;
2458;SDS011;1241;50.920;6.936;2023-03-31T05:35:04;12.33;;;7.43;;
2458;SDS011;1241;50.920;6.936;2023-03-31T05:37:30;8.75;;;6.15;;
2458;SDS011;1241;50.920;6.936;2023-03-31T05:39:56;6.35;;;4.53;;
2458;SDS011;1241;50.920;6.936;2023-03-31T05:42:21;5.50;;;4.60;;
2458;SDS011;1241;50.920;6.936;2023-03-31T05:44:47;6.70;;;5.20;;
2458;SDS011;1241;50.920;6.936;2023-03-31T05:47:13;7.10;;;5.78;;
2458;SDS011;1241;50.920;6.936;2023-03-31T05:49:39;9.55;;;6.45;;
2458;SDS011;1241;50.920;6.936;2023-03-31T05:52:05;8.02;;;5.10;;
2458;SDS011;1241;50.920;6.936;2023-03-31T05:54:31;6.05;;;5.20;;
2458;SDS011;1241;50.920;6.936;2023-03-31T05:56:57;6.90;;;4.88;;
2458;SDS011;1241;50.920;6.936;2023-03-31T05:59:23;12.10;;;7.77;;
2458;SDS011;1241;50.920;6.936;2023-03-31T06:01:48;6.67;;;4.67;;
2458;SDS011;1241;50.920;6.936;2023-03-31T06:04:14;10.10;;;7.97;;
2458;SDS011;1241;50.920;6.936;2023-03-31T06:06:40;9.77;;;7.47;;
2458;SDS011;1241;50.920;6.936;2023-03-31T06:09:07;4.72;;;4.30;;
2458;SDS011;1241;50.920;6.936;2023-03-31T06:11:33;5.53;;;3.90;;
2458;SDS011;1241;50.920;6.936;2023-03-31T06:13:58;5.40;;;3.80;;
2458;SDS011;1241;50.920;6.936;2023-03-31T06:16:24;9.32;;;7.10;;
2458;SDS011;1241;50.920;6.936;2023-03-31T06:18:50;7.82;;;5.35;;
2458;SDS011;1241;50.920;6.936;2023-03-31T06:21:17;3.42;;;2.05;;
2458;SDS011;1241;50.920;6.936;2023-03-31T06:23:43;1.23;;;1.23;;
2458;SDS011;1241;50.920;6.936;2023-03-31T06:26:11;4.95;;;3.10;;
2458;SDS011;1241;50.920;6.936;2023-03-31T06:28:43;4.72;;;3.08;;
2458;SDS011;1241;50.920;6.936;2023-03-31T06:31:11;13.13;;;8.88;;
2458;SDS011;1241;50.920;6.936;2023-03-31T06:33:39;8.00;;;5.65;;
2458;SDS011;1241;50.920;6.936;2023-03-31T06:36:06;10.18;;;8.15;;
2458;SDS011;1241;50.920;6.936;2023-03-31T06:38:33;7.70;;;6.75;;
2458;SDS011;1241;50.920;6.936;2023-03-31T06:41:00;8.20;;;6.70;;
2458;SDS011;1241;50.920;6.936;2023-03-31T06:43:25;7.97;;;6.73;;
2458;SDS011;1241;50.920;6.936;2023-03-31T06:45:52;13.35;;;10.32;;
2458;SDS011;1241;50.920;6.936;2023-03-31T06:48:19;15.15;;;11.10;;
2458;SDS011;1241;50.920;6.936;2023-03-31T06:50:46;8.03;;;6.07;;
2458;SDS011;1241;50.920;6.936;2023-03-31T06:53:12;6.30;;;4.90;;
2458;SDS011;1241;50.920;6.936;2023-03-31T06:55:38;11.57;;;8.88;;
2458;SDS011;1241;50.920;6.936;2023-03-31T06:58:04;8.45;;;6.85;;
2458;SDS011;1241;50.920;6.936;2023-03-31T07:00:30;9.10;;;5.95;;
2458;SDS011;1241;50.920;6.936;2023-03-31T07:02:56;11.50;;;7.32;;
2458;SDS011;1241;50.920;6.936;2023-03-31T07:05:22;11.95;;;9.95;;
2458;SDS011;1241;50.920;6.936;2023-03-31T07:07:53;14.80;;;7.50;;
2458;SDS011;1241;50.920;6.936;2023-03-31T07:10:19;6.88;;;5.78;;
2458;SDS011;1241;50.920;6.936;2023-03-31T07:12:46;7.22;;;6.53;;
2458;SDS011;1241;50.920;6.936;2023-03-31T07:15:11;6.97;;;5.77;;
2458;SDS011;1241;50.920;6.936;2023-03-31T07:17:37;7.83;;;5.60;;
2458;SDS011;1241;50.920;6.936;2023-03-31T07:20:06;8.85;;;6.70;;
2458;SDS011;1241;50.920;6.936;2023-03-31T07:22:37;4.07;;;3.40;;
2458;SDS011;1241;50.920;6.936;2023-03-31T07:25:05;8.45;;;6.30;;
2458;SDS011;1241;50.920;6.936;2023-03-31T07:27:32;10.80;;;9.25;;
2458;SDS011;1241;50.920;6.936;2023-03-31T07:29:58;9.63;;;7.90;;
2458;SDS011;1241;50.920;6.936;2023-03-31T07:32:24;5.32;;;4.47;;
2458;SDS011;1241;50.920;6.936;2023-03-31T07:34:50;6.73;;;5.20;;
2458;SDS011;1241;50.920;6.936;2023-03-31T07:37:16;8.00;;;5.77;;
2458;SDS011;1241;50.920;6.936;2023-03-31T07:39:41;10.52;;;8.40;;
2458;SDS011;1241;50.920;6.936;2023-03-31T07:42:07;7.80;;;7.00;;
2458;SDS011;1241;50.920;6.936;2023-03-31T07:44:33;8.25;;;6.32;;
2458;SDS011;1241;50.920;6.936;2023-03-31T07:47:00;5.43;;;4.50;;
2458;SDS011;1241;50.920;6.936;2023-03-31T07:49:29;7.75;;;4.75;;
2458;SDS011;1241;50.920;6.936;2023-03-31T07:51:55;11.98;;;9.07;;
2458;SDS011;1241;50.920;6.936;2023-03-31T07:54:21;10.23;;;8.13;;
2458;SDS011;1241;50.920;6.936;2023-03-31T07:56:47;11.65;;;8.55;;
2458;SDS011;1241;50.920;6.936;2023-03-31T07:59:13;12.80;;;10.00;;
2458;SDS011;1241;50.920;6.936;2023-03-31T08:01:38;13.90;;;11.87;;
2458;SDS011;1241;50.920;6.936;2023-03-31T08:04:04;11.57;;;10.10;;
2458;SDS011;1241;50.920;6.936;2023-03-31T08:06:30;9.52;;;8.48;;
2458;SDS011;1241;50.920;6.936;2023-03-31T08:08:56;11.05;;;9.43;;
2458;SDS011;1241;50.920;6.936;2023-03-31T08:11:22;30.83;;;23.65;;
2458;SDS011;1241;50.920;6.936;2023-03-31T08:13:49;8.90;;;7.22;;
2458;SDS011;1241;50.920;6.936;2023-03-31T08:16:14;10.13;;;7.82;;
2458;SDS011;1241;50.920;6.936;2023-03-31T08:18:40;14.32;;;10.20;;
2458;SDS011;1241;50.920;6.936;2023-03-31T08:21:07;9.02;;;6.63;;
2458;SDS011;1241;50.920;6.936;2023-03-31T08:23:34;13.65;;;10.88;;
2458;SDS011;1241;50.920;6.936;2023-03-31T08:26:09;20.08;;;16.33;;
2458;SDS011;1241;50.920;6.936;2023-03-31T08:28:41;9.63;;;7.73;;
2458;SDS011;1241;50.920;6.936;2023-03-31T08:31:07;14.90;;;11.40;;
2458;SDS011;1241;50.920;6.936;2023-03-31T08:33:34;11.70;;;8.25;;
2458;SDS011;1241;50.920;6.936;2023-03-31T08:36:02;23.23;;;16.50;;
2458;SDS011;1241;50.920;6.936;2023-03-31T08:38:29;17.45;;;13.82;;
2458;SDS011;1241;50.920;6.936;2023-03-31T08:40:59;16.40;;;11.45;;
2458;SDS011;1241;50.920;6.936;2023-03-31T08:43:30;18.88;;;15.63;;
2458;SDS011;1241;50.920;6.936;2023-03-31T08:46:02;13.32;;;9.10;;
2458;SDS011;1241;50.920;6.936;2023-03-31T08:48:29;19.50;;;14.75;;
2458;SDS011;1241;50.920;6.936;2023-03-31T08:51:28;17.55;;;10.18;;
2458;SDS011;1241;50.920;6.936;2023-03-31T08:54:06;18.20;;;12.85;;
2458;SDS011;1241;50.920;6.936;2023-03-31T08:56:41;11.80;;;8.43;;
2458;SDS011;1241;50.920;6.936;2023-03-31T08:59:43;23.35;;;19.00;;
2458;SDS011;1241;50.920;6.936;2023-03-31T09:07:50;19.83;;;15.43;;
2458;SDS011;1241;50.920;6.936;2023-03-31T09:15:58;17.75;;;10.90;;
2458;SDS011;1241;50.920;6.936;2023-03-31T09:18:28;16.50;;;10.07;;
2458;SDS011;1241;50.920;6.936;2023-03-31T09:21:16;27.35;;;24.20;;
2458;SDS011;1241;50.920;6.936;2023-03-31T09:26:29;23.70;;;18.67;;
2458;SDS011;1241;50.920;6.936;2023-03-31T09:29:30;26.85;;;19.23;;
2458;SDS011;1241;50.920;6.936;2023-03-31T09:32:18;24.33;;;20.20;;
2458;SDS011;1241;50.920;6.936;2023-03-31T09:34:46;24.70;;;20.23;;
2458;SDS011;1241;50.920;6.936;2023-03-31T09:37:16;17.27;;;12.15;;
2458;SDS011;1241;50.920;6.936;2023-03-31T09:39:43;21.80;;;16.50;;
2458;SDS011;1241;50.920;6.936;2023-03-31T09:42:12;30.40;;;24.93;;
2458;SDS011;1241;50.920;6.936;2023-03-31T09:44:39;57.10;;;42.23;;
2458;SDS011;1241;50.920;6.936;2023-03-31T09:47:10;16.43;;;12.10;;
2458;SDS011;1241;50.920;6.936;2023-03-31T09:49:40;26.75;;;18.70;;
2458;SDS011;1241;50.920;6.936;2023-03-31T09:52:15;38.37;;;29.10;;
2458;SDS011;1241;50.920;6.936;2023-03-31T09:54:45;33.80;;;24.73;;
2458;SDS011;1241;50.920;6.936;2023-03-31T09:57:25;36.30;;;27.05;;
2458;SDS011;1241;50.920;6.936;2023-03-31T10:00:02;26.80;;;21.17;;
2458;SDS011;1241;50.920;6.936;2023-03-31T10:02:43;23.50;;;16.58;;
2458;SDS011;1241;50.920;6.936;2023-03-31T10:05:26;21.93;;;14.37;;
2458;SDS011;1241;50.920;6.936;2023-03-31T10:10:44;27.25;;;20.05;;
2458;SDS011;1241;50.920;6.936;2023-03-31T10:13:27;33.20;;;25.67;;
2458;SDS011;1241;50.920;6.936;2023-03-31T10:16:03;40.22;;;30.70;;
2458;SDS011;1241;50.920;6.936;2023-03-31T10:18:34;27.35;;;18.77;;
2458;SDS011;1241;50.920;6.936;2023-03-31T10:23:50;38.25;;;28.17;;
2458;SDS011;1241;50.920;6.936;2023-03-31T10:26:19;31.95;;;22.88;;
2458;SDS011;1241;50.920;6.936;2023-03-31T10:28:52;47.05;;;33.03;;
2458;SDS011;1241;50.920;6.936;2023-03-31T10:31:19;29.70;;;21.17;;
2458;SDS011;1241;50.920;6.936;2023-03-31T10:33:59;46.63;;;37.00;;
2458;SDS011;1241;50.920;6.936;2023-03-31T10:36:30;51.80;;;41.78;;
2458;SDS011;1241;50.920;6.936;2023-03-31T10:38:56;24.80;;;17.37;;
2458;SDS011;1241;50.920;6.936;2023-03-31T10:41:23;29.27;;;23.67;;
2458;SDS011;1241;50.920;6.936;2023-03-31T10:43:54;21.00;;;16.33;;
2458;SDS011;1241;50.920;6.936;2023-03-31T10:51:57;41.83;;;35.40;;
2458;SDS011;1241;50.920;6.936;2023-03-31T10:54:25;30.83;;;22.48;;
2458;SDS011;1241;50.920;6.936;2023-03-31T10:56:52;21.63;;;16.55;;
2458;SDS011;1241;50.920;6.936;2023-03-31T11:00:04;31.08;;;25.63;;
2458;SDS011;1241;50.920;6.936;2023-03-31T11:16:23;30.40;;;23.92;;
2458;SDS011;1241;50.920;6.936;2023-03-31T11:19:06;21.10;;;16.05;;
2458;SDS011;1241;50.920;6.936;2023-03-31T11:36:15;34.13;;;27.60;;
2458;SDS011;1241;50.920;6.936;2023-03-31T11:39:02;37.60;;;31.48;;
2458;SDS011;1241;50.920;6.936;2023-03-31T11:41:49;20.23;;;15.45;;
2458;SDS011;1241;50.920;6.936;2023-03-31T11:44:18;35.65;;;28.75;;
2458;SDS011;1241;50.920;6.936;2023-03-31T11:47:29;28.58;;;21.92;;
2458;SDS011;1241;50.920;6.936;2023-03-31T11:49:53;19.48;;;14.70;;
2458;SDS011;1241;50.920;6.936;2023-03-31T11:52:26;16.55;;;13.23;;
2458;SDS011;1241;50.920;6.936;2023-03-31T11:55:02;21.05;;;16.40;;
2458;SDS011;1241;50.920;6.936;2023-03-31T11:57:47;23.80;;;16.80;;
2458;SDS011;1241;50.920;6.936;2023-03-31T12:00:29;24.80;;;17.67;;
2458;SDS011;1241;50.920;6.936;2023-03-31T12:05:28;24.67;;;18.73;;
2458;SDS011;1241;50.920;6.936;2023-03-31T12:08:01;32.75;;;25.13;;
2458;SDS011;1241;50.920;6.936;2023-03-31T12:10:40;23.25;;;17.92;;
2458;SDS011;1241;50.920;6.936;2023-03-31T12:15:56;28.58;;;20.48;;
2458;SDS011;1241;50.920;6.936;2023-03-31T12:18:28;36.53;;;26.42;;
2458;SDS011;1241;50.920;6.936;2023-03-31T12:21:17;24.25;;;16.60;;
2458;SDS011;1241;50.920;6.936;2023-03-31T12:23:44;36.37;;;26.43;;
2458;SDS011;1241;50.920;6.936;2023-03-31T12:26:17;25.35;;;17.10;;
2458;SDS011;1241;50.920;6.936;2023-03-31T12:28:59;20.02;;;14.75;;
2458;SDS011;1241;50.920;6.936;2023-03-31T12:31:41;26.35;;;20.73;;
2458;SDS011;1241;50.920;6.936;2023-03-31T12:34:18;21.08;;;14.93;;
2458;SDS011;1241;50.920;6.936;2023-03-31T12:36:58;36.38;;;28.85;;
2458;SDS011;1241;50.920;6.936;2023-03-31T12:56:03;20.83;;;15.43;;
2458;SDS011;1241;50.920;6.936;2023-03-31T13:14:22;39.15;;;30.95;;
2458;SDS011;1241;50.920;6.936;2023-03-31T13:16:52;30.35;;;21.60;;
2458;SDS011;1241;50.920;6.936;2023-03-31T13:19:35;32.17;;;23.93;;
2458;SDS011;1241;50.920;6.936;2023-03-31T13:22:02;34.83;;;25.93;;
2458;SDS011;1241;50.920;6.936;2023-03-31T13:24:30;28.00;;;19.20;;
2458;SDS011;1241;50.920;6.936;2023-03-31T13:26:57;26.30;;;19.47;;
2458;SDS011;1241;50.920;6.936;2023-03-31T13:29:44;27.40;;;19.90;;
2458;SDS011;1241;50.920;6.936;2023-03-31T13:32:26;18.95;;;14.07;;
2458;SDS011;1241;50.920;6.936;2023-03-31T13:51:52;12.97;;;9.27;;
2458;SDS011;1241;50.920;6.936;2023-03-31T13:59:59;24.00;;;16.40;;
2458;SDS011;1241;50.920;6.936;2023-03-31T14:08:07;30.87;;;20.73;;
2458;SDS011;1241;50.920;6.936;2023-03-31T14:10:37;22.67;;;16.10;;
2458;SDS011;1241;50.920;6.936;2023-03-31T14:16:10;13.93;;;10.20;;
2458;SDS011;1241;50.920;6.936;2023-03-31T14:18:33;27.70;;;18.43;;
2458;SDS011;1241;50.920;6.936;2023-03-31T14:34:34;23.50;;;17.45;;
2458;SDS011;1241;50.920;6.936;2023-03-31T14:37:09;19.67;;;15.25;;
2458;SDS011;1241;50.920;6.936;2023-03-31T14:39:41;25.13;;;18.92;;
2458;SDS011;1241;50.920;6.936;2023-03-31T14:42:13;24.63;;;18.17;;
2458;SDS011;1241;50.920;6.936;2023-03-31T14:44:42;29.30;;;23.13;;
2458;SDS011;1241;50.920;6.936;2023-03-31T14:47:13;15.00;;;11.65;;
2458;SDS011;1241;50.920;6.936;2023-03-31T14:49:40;27.45;;;21.40;;
2458;SDS011;1241;50.920;6.936;2023-03-31T14:52:39;19.08;;;15.98;;
2458;SDS011;1241;50.920;6.936;2023-03-31T14:55:00;19.63;;;14.45;;
2458;SDS011;1241;50.920;6.936;2023-03-31T14:57:35;26.40;;;20.08;;
2458;SDS011;1241;50.920;6.936;2023-03-31T15:00:05;19.35;;;14.77;;
2458;SDS011;1241;50.920;6.936;2023-03-31T15:02:33;20.02;;;15.77;;
2458;SDS011;1241;50.920;6.936;2023-03-31T15:05:07;26.58;;;20.27;;
2458;SDS011;1241;50.920;6.936;2023-03-31T15:07:39;24.02;;;20.13;;
2458;SDS011;1241;50.920;6.936;2023-03-31T15:10:05;28.60;;;20.92;;
2458;SDS011;1241;50.920;6.936;2023-03-31T15:12:32;32.75;;;25.13;;
2458;SDS011;1241;50.920;6.936;2023-03-31T15:15:04;30.50;;;22.67;;
2458;SDS011;1241;50.920;6.936;2023-03-31T15:17:35;25.60;;;20.38;;
2458;SDS011;1241;50.920;6.936;2023-03-31T15:20:20;25.47;;;20.43;;
2458;SDS011;1241;50.920;6.936;2023-03-31T15:22:49;25.85;;;20.10;;
2458;SDS011;1241;50.920;6.936;2023-03-31T15:25:15;17.23;;;11.65;;
2458;SDS011;1241;50.920;6.936;2023-03-31T15:27:44;37.73;;;27.20;;
2458;SDS011;1241;50.920;6.936;2023-03-31T15:30:13;30.77;;;23.47;;
2458;SDS011;1241;50.920;6.936;2023-03-31T15:32:43;16.55;;;12.32;;
2458;SDS011;1241;50.920;6.936;2023-03-31T15:35:25;42.80;;;33.40;;
2458;SDS011;1241;50.920;6.936;2023-03-31T15:37:55;22.85;;;16.70;;
2458;SDS011;1241;50.920;6.936;2023-03-31T15:40:24;33.58;;;25.75;;
2458;SDS011;1241;50.920;6.936;2023-03-31T15:43:05;23.70;;;18.33;;
2458;SDS011;1241;50.920;6.936;2023-03-31T15:48:19;28.77;;;20.77;;
2458;SDS011;1241;50.920;6.936;2023-03-31T15:50:47;23.37;;;15.80;;
2458;SDS011;1241;50.920;6.936;2023-03-31T15:53:34;27.05;;;21.40;;
2458;SDS011;1241;50.920;6.936;2023-03-31T15:56:02;26.27;;;20.75;;
2458;SDS011;1241;50.920;6.936;2023-03-31T15:58:44;29.17;;;21.17;;
2458;SDS011;1241;50.920;6.936;2023-03-31T16:01:21;26.00;;;20.08;;
2458;SDS011;1241;50.920;6.936;2023-03-31T16:03:52;19.17;;;14.60;;
2458;SDS011;1241;50.920;6.936;2023-03-31T16:06:21;19.07;;;14.10;;
2458;SDS011;1241;50.920;6.936;2023-03-31T16:09:04;25.05;;;18.77;;
2458;SDS011;1241;50.920;6.936;2023-03-31T16:11:40;29.90;;;;;
2458;SDS011;1241;50.920;6.936;2023-03-31T16:14:24;46.30;;;33.33;;
2458;SDS011;1241;50.920;6.936;2023-03-31T16:17:07;23.60;;;14.73;;
2458;SDS011;1241;50.920;6.936;2023-03-31T16:19:41;18.23;;;10.37;;
2458;SDS011;1241;50.920;6.936;2023-03-31T16:22:15;31.70;;;19.90;;
2458;SDS011;1241;50.920;6.936;2023-03-31T16:24:47;16.00;;;10.33;;
2458;SDS011;1241;50.920;6.936;2023-03-31T16:27:13;9.48;;;5.28;;
2458;SDS011;1241;50.920;6.936;2023-03-31T16:29:39;33.30;;;19.37;;
2458;SDS011;1241;50.920;6.936;2023-03-31T16:32:09;22.33;;;17.67;;
2458;SDS011;1241;50.920;6.936;2023-03-31T16:37:18;11.30;;;6.90;;
2458;SDS011;1241;50.920;6.936;2023-03-31T16:39:43;58.93;;;42.00;;
2458;SDS011;1241;50.920;6.936;2023-03-31T16:42:09;19.93;;;13.47;;
2458;SDS011;1241;50.920;6.936;2023-03-31T16:44:35;17.73;;;13.30;;
2458;SDS011;1241;50.920;6.936;2023-03-31T16:47:00;41.00;;;30.50;;
2458;SDS011;1241;50.920;6.936;2023-03-31T16:49:26;26.33;;;17.97;;
2458;SDS011;1241;50.920;6.936;2023-03-31T16:51:52;25.83;;;18.83;;
2458;SDS011;1241;50.920;6.936;2023-03-31T16:54:17;28.63;;;21.67;;
2458;SDS011;1241;50.920;6.936;2023-03-31T16:56:43;39.63;;;27.40;;
2458;SDS011;1241;50.920;6.936;2023-03-31T16:59:09;19.70;;;14.97;;
2458;SDS011;1241;50.920;6.936;2023-03-31T17:01:35;12.93;;;8.90;;
2458;SDS011;1241;50.920;6.936;2023-03-31T17:04:01;12.63;;;9.40;;
2458;SDS011;1241;50.920;6.936;2023-03-31T17:06:26;21.10;;;14.67;;
2458;SDS011;1241;50.920;6.936;2023-03-31T17:08:52;21.87;;;15.10;;
2458;SDS011;1241;50.920;6.936;2023-03-31T17:11:18;25.93;;;17.00;;
2458;SDS011;1241;50.920;6.936;2023-03-31T17:13:43;12.97;;;9.00;;
2458;SDS011;1241;50.920;6.936;2023-03-31T17:16:10;22.42;;;16.42;;
2458;SDS011;1241;50.920;6.936;2023-03-31T17:18:36;17.55;;;12.00;;
2458;SDS011;1241;50.920;6.936;2023-03-31T17:21:03;19.92;;;15.10;;
2458;SDS011;1241;50.920;6.936;2023-03-31T17:23:30;21.75;;;16.17;;
2458;SDS011;1241;50.920;6.936;2023-03-31T17:25:56;17.92;;;13.23;;
2458;SDS011;1241;50.920;6.936;2023-03-31T17:28:21;18.05;;;14.30;;
2458;SDS011;1241;50.920;6.936;2023-03-31T17:30:47;29.57;;;22.43;;
2458;SDS011;1241;50.920;6.936;2023-03-31T17:33:14;23.48;;;16.98;;
2458;SDS011;1241;50.920;6.936;2023-03-31T17:35:40;26.13;;;18.85;;
2458;SDS011;1241;50.920;6.936;2023-03-31T17:38:07;26.60;;;20.55;;
2458;SDS011;1241;50.920;6.936;2023-03-31T17:40:36;24.70;;;18.55;;
2458;SDS011;1241;50.920;6.936;2023-03-31T17:43:03;22.17;;;16.75;;
2458;SDS011;1241;50.920;6.936;2023-03-31T17:45:29;23.60;;;17.48;;
2458;SDS011;1241;50.920;6.936;2023-03-31T17:47:56;26.95;;;19.77;;
2458;SDS011;1241;50.920;6.936;2023-03-31T17:50:23;27.48;;;19.65;;
2458;SDS011;1241;50.920;6.936;2023-03-31T17:52:49;21.60;;;16.33;;
2458;SDS011;1241;50.920;6.936;2023-03-31T17:55:15;25.10;;;18.33;;
2458;SDS011;1241;50.920;6.936;2023-03-31T17:57:42;16.33;;;11.43;;
2458;SDS011;1241;50.920;6.936;2023-03-31T18:00:08;27.33;;;22.08;;
2458;SDS011;1241;50.920;6.936;2023-03-31T18:02:38;12.63;;;9.20;;
2458;SDS011;1241;50.920;6.936;2023-03-31T18:05:05;19.00;;;14.10;;
2458;SDS011;1241;50.920;6.936;2023-03-31T18:07:32;31.10;;;23.15;;
2458;SDS011;1241;50.920;6.936;2023-03-31T18:09:58;19.03;;;14.87;;
2458;SDS011;1241;50.920;6.936;2023-03-31T18:12:24;23.90;;;16.92;;
2458;SDS011;1241;50.920;6.936;2023-03-31T18:14:50;15.02;;;9.70;;
2458;SDS011;1241;50.920;6.936;2023-03-31T18:17:16;25.80;;;19.23;;
2458;SDS011;1241;50.920;6.936;2023-03-31T18:19:42;15.70;;;10.25;;
2458;SDS011;1241;50.920;6.936;2023-03-31T18:22:08;22.67;;;14.30;;
2458;SDS011;1241;50.920;6.936;2023-03-31T18:24:34;19.27;;;13.63;;